createdAt,value
2023-04-08T00:02:15.906Z,101386.78
2023-04-08T00:04:42.912Z,101422.38
2023-04-08T00:07:09.555Z,101422.03
2023-04-08T00:09:36.337Z,101426.97
2023-04-08T00:12:03.040Z,101383.94
2023-04-08T00:14:29.587Z,101431.16
2023-04-08T00:16:56.296Z,101381.13
2023-04-08T00:19:22.848Z,101432.88
2023-04-08T00:21:49.365Z,101424.75
2023-04-08T00:24:16.610Z,101293.69
2023-04-08T00:26:43.355Z,101427.94
2023-04-08T00:29:09.890Z,101430.63
2023-04-08T00:31:36.697Z,101434.75
2023-04-08T00:34:03.220Z,101421.91
2023-04-08T00:36:29.848Z,101435.25
2023-04-08T00:38:56.777Z,101435.50
2023-04-08T00:41:23.431Z,101448.16
2023-04-08T00:43:49.925Z,101452.66
2023-04-08T00:46:16.730Z,101443.22
2023-04-08T00:48:43.389Z,101453.84
2023-04-08T00:51:09.954Z,101456.97
2023-04-08T00:53:36.583Z,101450.88
2023-04-08T00:56:03.532Z,101429.00
2023-04-08T00:58:30.395Z,101448.75
2023-04-08T01:01:11.412Z,101411.47
2023-04-08T01:03:47.398Z,101440.00
2023-04-08T01:06:23.792Z,101434.72
2023-04-08T01:08:51.838Z,101404.59
2023-04-08T01:11:18.840Z,101437.84
2023-04-08T01:13:46.637Z,101453.38
2023-04-08T01:16:14.774Z,101409.19
2023-04-08T01:18:42.449Z,101451.78
2023-04-08T01:21:09.703Z,101423.84
2023-04-08T01:23:47.007Z,101439.03
2023-04-08T01:26:22.249Z,101440.97
2023-04-08T01:28:51.679Z,101449.25
2023-04-08T01:31:18.716Z,101403.94
2023-04-08T01:33:46.112Z,101455.91
2023-04-08T01:36:13.236Z,101455.88
2023-04-08T01:38:40.614Z,101402.56
2023-04-08T01:41:09.467Z,101428.50
2023-04-08T01:43:36.341Z,101422.25
2023-04-08T01:46:03.005Z,101433.25
2023-04-08T01:48:30.107Z,101438.09
2023-04-08T01:50:57.248Z,101428.25
2023-04-08T01:53:24.055Z,101464.53
2023-04-08T01:55:55.725Z,101407.28
2023-04-08T01:58:22.842Z,101392.03
2023-04-08T02:00:50.041Z,101455.38
2023-04-08T02:03:19.560Z,101453.44
2023-04-08T02:05:46.360Z,101453.91
2023-04-08T02:08:13.146Z,101446.66
2023-04-08T02:10:40.756Z,101467.31
2023-04-08T02:13:07.906Z,101466.28
2023-04-08T02:15:35.716Z,101469.03
2023-04-08T02:18:16.153Z,101433.88
2023-04-08T02:20:51.433Z,101462.25
2023-04-08T02:23:24.069Z,101481.09
2023-04-08T02:25:53.251Z,101485.22
2023-04-08T02:28:19.856Z,101474.22
2023-04-08T02:30:51.490Z,101472.81
2023-04-08T02:33:19.908Z,101411.66
2023-04-08T02:35:48.027Z,101433.41
2023-04-08T02:38:14.669Z,101437.00
2023-04-08T02:40:41.919Z,101442.19
2023-04-08T02:43:08.408Z,101481.94
2023-04-08T02:45:42.831Z,101486.28
2023-04-08T02:48:10.196Z,101487.84
2023-04-08T02:50:37.340Z,101483.34
2023-04-08T02:53:04.017Z,101494.38
2023-04-08T02:55:30.610Z,101490.84
2023-04-08T02:57:57.160Z,101483.31
2023-04-08T03:00:23.738Z,101460.41
2023-04-08T03:02:50.561Z,101450.22
2023-04-08T03:05:17.537Z,101497.53
2023-04-08T03:07:44.654Z,101501.72
2023-04-08T03:10:12.177Z,101487.78
2023-04-08T03:12:38.813Z,101461.94
2023-04-08T03:15:06.207Z,101495.44
2023-04-08T03:17:34.646Z,101486.16
2023-04-08T03:20:04.077Z,101484.91
2023-04-08T03:22:31.030Z,101488.47
2023-04-08T03:24:57.935Z,101484.84
2023-04-08T03:27:24.481Z,101492.06
2023-04-08T03:29:51.085Z,101466.94
2023-04-08T03:32:18.049Z,101477.91
2023-04-08T03:34:44.599Z,101487.56
2023-04-08T03:37:11.395Z,101444.28
2023-04-08T03:39:38.456Z,101494.47
2023-04-08T03:42:05.005Z,101494.16
2023-04-08T03:44:31.566Z,101492.06
2023-04-08T03:46:58.319Z,101499.69
2023-04-08T03:49:24.818Z,101493.31
2023-04-08T03:51:51.494Z,101413.31
2023-04-08T03:54:18.138Z,101488.31
2023-04-08T03:56:44.708Z,101491.91
2023-04-08T03:59:11.280Z,101454.03
2023-04-08T04:01:38.281Z,101506.44
2023-04-08T04:04:05.752Z,101471.56
2023-04-08T04:06:32.465Z,101475.75
2023-04-08T04:08:58.993Z,101490.66
2023-04-08T04:11:26.411Z,101502.22
2023-04-08T04:13:52.993Z,101491.47
2023-04-08T04:16:20.208Z,101495.63
2023-04-08T04:18:46.795Z,101512.84
2023-04-08T04:21:13.323Z,101478.41
2023-04-08T04:23:39.990Z,101503.25
2023-04-08T04:26:10.094Z,101434.38
2023-04-08T04:28:36.970Z,101508.16
2023-04-08T04:31:03.746Z,101508.88
2023-04-08T04:33:31.058Z,101457.44
2023-04-08T04:35:57.615Z,101509.59
2023-04-08T04:38:24.359Z,101464.97
2023-04-08T04:40:51.218Z,101495.81
2023-04-08T04:43:17.743Z,101475.56
2023-04-08T04:45:45.051Z,101496.13
2023-04-08T04:48:11.627Z,101494.00
2023-04-08T04:50:38.426Z,101497.34
2023-04-08T04:53:05.018Z,101520.81
2023-04-08T04:55:31.540Z,101521.66
2023-04-08T04:57:58.033Z,101510.38
2023-04-08T05:00:24.548Z,101533.34
2023-04-08T05:02:51.725Z,101537.94
2023-04-08T05:05:18.484Z,101553.41
2023-04-08T05:07:45.098Z,101546.31
2023-04-08T05:10:11.945Z,101557.03
2023-04-08T05:12:38.743Z,101513.41
2023-04-08T05:15:06.561Z,101547.38
2023-04-08T05:17:33.106Z,101549.22
2023-04-08T05:19:59.758Z,101541.72
2023-04-08T05:22:26.500Z,101541.53
2023-04-08T05:24:53.056Z,101526.22
2023-04-08T05:27:21.594Z,101520.34
2023-04-08T05:29:48.152Z,101539.44
2023-04-08T05:32:16.695Z,101560.34
2023-04-08T05:34:43.702Z,101561.41
2023-04-08T05:37:10.418Z,101545.09
2023-04-08T05:39:37.029Z,101521.03
2023-04-08T05:42:03.720Z,101570.66
2023-04-08T05:44:30.756Z,101528.03
2023-04-08T05:46:58.218Z,101577.69
2023-04-08T05:49:24.836Z,101562.81
2023-04-08T05:51:51.471Z,101557.84
2023-04-08T05:54:17.997Z,101547.88
2023-04-08T05:56:46.320Z,101560.94
2023-04-08T05:59:12.947Z,101586.81
2023-04-08T06:01:39.512Z,101577.56
2023-04-08T06:04:06.315Z,101554.25
2023-04-08T06:06:33.293Z,101586.63
2023-04-08T06:08:59.928Z,101584.69
2023-04-08T06:11:26.520Z,101449.91
2023-04-08T06:13:53.288Z,101581.13
2023-04-08T06:16:21.219Z,101603.56
2023-04-08T06:18:49.115Z,101608.50
2023-04-08T06:21:16.580Z,101591.31
2023-04-08T06:23:43.108Z,101611.69
2023-04-08T06:26:09.936Z,101563.16
2023-04-08T06:28:36.759Z,101565.94
2023-04-08T06:31:03.594Z,101597.84
2023-04-08T06:33:30.478Z,101576.69
2023-04-08T06:36:04.419Z,101606.13
2023-04-08T06:38:32.088Z,101609.03
2023-04-08T06:41:06.401Z,101612.81
2023-04-08T06:43:33.788Z,101620.78
2023-04-08T06:46:00.567Z,101605.06
2023-04-08T06:48:33.274Z,101603.59
2023-04-08T06:51:01.437Z,101613.81
2023-04-08T06:53:32.785Z,101626.66
2023-04-08T06:55:59.969Z,101612.78
2023-04-08T06:58:27.260Z,101603.53
2023-04-08T07:00:56.249Z,101626.13
2023-04-08T07:03:23.370Z,101631.16
2023-04-08T07:05:50.052Z,101610.69
2023-04-08T07:08:16.637Z,101641.34
2023-04-08T07:10:43.411Z,101663.81
2023-04-08T07:13:10.491Z,101655.50
2023-04-08T07:15:39.912Z,101654.63
2023-04-08T07:18:06.496Z,101634.56
2023-04-08T07:20:35.856Z,101630.00
2023-04-08T07:23:02.373Z,101657.59
2023-04-08T07:25:28.917Z,101634.19
2023-04-08T07:27:56.217Z,101656.75
2023-04-08T07:30:22.755Z,101669.72
2023-04-08T07:32:49.326Z,101661.06
2023-04-08T07:35:19.139Z,101664.34
2023-04-08T07:37:46.060Z,101668.28
2023-04-08T07:40:12.779Z,101662.34
2023-04-08T07:42:40.820Z,101688.00
2023-04-08T07:45:08.250Z,101674.50
2023-04-08T07:47:34.895Z,101572.84
2023-04-08T07:50:01.588Z,101655.75
2023-04-08T07:52:28.239Z,101678.94
2023-04-08T07:54:55.001Z,101644.47
2023-04-08T07:57:21.946Z,101674.94
2023-04-08T07:59:48.838Z,101687.59
2023-04-08T08:02:15.583Z,101664.44
2023-04-08T08:04:42.391Z,101656.16
2023-04-08T08:07:09.215Z,101664.16
2023-04-08T08:09:35.868Z,101672.75
2023-04-08T08:12:02.889Z,101681.72
2023-04-08T08:14:29.441Z,101693.09
2023-04-08T08:16:56.680Z,101637.25
2023-04-08T08:19:23.219Z,101656.38
2023-04-08T08:21:49.738Z,101698.44
2023-04-08T08:24:17.377Z,101708.78
2023-04-08T08:26:45.548Z,101716.41
2023-04-08T08:29:12.052Z,101714.34
2023-04-08T08:31:38.592Z,101710.72
2023-04-08T08:34:05.310Z,101682.34
2023-04-08T08:36:33.496Z,101686.34
2023-04-08T08:39:01.957Z,101682.13
2023-04-08T08:41:33.463Z,101719.78
2023-04-08T08:44:00.651Z,101719.56
2023-04-08T08:46:27.566Z,101722.19
2023-04-08T08:48:54.293Z,101679.16
2023-04-08T08:51:21.221Z,101731.94
2023-04-08T08:53:47.861Z,101728.78
2023-04-08T08:56:18.268Z,101724.41
2023-04-08T08:58:45.699Z,101702.16
2023-04-08T09:01:32.239Z,101733.72
2023-04-08T09:04:12.674Z,101734.13
2023-04-08T09:06:39.899Z,101727.28
2023-04-08T09:09:10.226Z,101736.28
2023-04-08T09:11:42.407Z,101735.94
2023-04-08T09:14:24.769Z,101703.41
2023-04-08T09:16:52.452Z,101741.88
2023-04-08T09:19:19.406Z,101746.09
2023-04-08T09:22:04.844Z,101723.19
2023-04-08T09:24:31.943Z,101723.09
2023-04-08T09:26:58.830Z,101728.03
2023-04-08T09:29:32.071Z,101733.53
2023-04-08T09:32:01.629Z,101710.25
2023-04-08T09:34:29.532Z,101739.75
2023-04-08T09:36:56.787Z,101751.69
2023-04-08T09:39:23.704Z,101720.66
2023-04-08T09:41:51.608Z,101751.00
2023-04-08T09:44:20.922Z,101733.81
2023-04-08T09:46:56.978Z,101753.06
2023-04-08T09:49:27.456Z,101751.59
2023-04-08T09:52:18.982Z,101746.69
2023-04-08T09:54:57.712Z,101746.22
2023-04-08T09:57:53.188Z,101757.16
2023-04-08T10:00:22.181Z,101729.03
2023-04-08T10:03:12.723Z,101756.88
2023-04-08T10:05:42.314Z,101735.94
2023-04-08T10:08:08.981Z,101742.88
2023-04-08T10:10:37.154Z,101736.06
2023-04-08T10:13:04.599Z,101741.81
2023-04-08T10:15:32.979Z,101759.16
2023-04-08T10:18:05.674Z,101763.34
2023-04-08T10:20:38.448Z,101765.69
2023-04-08T10:23:13.265Z,101762.16
2023-04-08T10:25:43.160Z,101749.56
2023-04-08T10:28:17.792Z,101753.03
2023-04-08T10:30:47.454Z,101742.97
2023-04-08T10:33:16.900Z,101717.94
2023-04-08T10:35:48.478Z,101757.44
2023-04-08T10:38:16.143Z,101735.63
2023-04-08T10:40:44.230Z,101705.78
2023-04-08T10:43:12.018Z,101712.97
2023-04-08T10:45:39.417Z,101732.59
2023-04-08T10:48:24.521Z,101746.88
2023-04-08T10:50:59.554Z,101700.19
2023-04-08T10:53:34.942Z,101750.28
2023-04-08T10:56:17.801Z,101745.56
2023-04-08T10:58:56.336Z,101752.19
2023-04-08T11:01:23.233Z,101728.69
2023-04-08T11:03:50.484Z,101741.19
2023-04-08T11:06:17.904Z,101747.78
2023-04-08T11:08:44.862Z,101747.28
2023-04-08T11:11:12.056Z,101719.47
2023-04-08T11:13:52.086Z,101744.53
2023-04-08T11:16:21.454Z,101730.28
2023-04-08T11:18:48.467Z,101733.47
2023-04-08T11:21:15.482Z,101731.19
2023-04-08T11:23:42.585Z,101724.72
2023-04-08T11:26:09.282Z,101750.06
2023-04-08T11:28:35.847Z,101744.50
2023-04-08T11:31:04.272Z,101726.97
2023-04-08T11:33:31.801Z,101738.28
2023-04-08T11:36:01.764Z,101740.19
2023-04-08T11:38:28.525Z,101730.81
2023-04-08T11:40:56.139Z,101729.09
2023-04-08T11:43:23.405Z,101732.75
2023-04-08T11:45:50.368Z,101739.19
2023-04-08T11:48:17.393Z,101732.84
2023-04-08T11:50:45.110Z,101756.44
2023-04-08T11:53:22.332Z,101722.41
2023-04-08T11:55:49.175Z,101747.06
2023-04-08T11:58:15.962Z,101740.56
2023-04-08T12:00:42.811Z,101738.25
2023-04-08T12:03:10.576Z,101751.91
2023-04-08T12:05:37.465Z,101751.09
2023-04-08T12:08:04.296Z,101739.91
2023-04-08T12:10:31.241Z,101744.16
2023-04-08T12:12:57.833Z,101707.41
2023-04-08T12:15:24.377Z,101746.00
2023-04-08T12:17:51.042Z,101717.06
2023-04-08T12:20:18.688Z,101738.72
2023-04-08T12:22:45.542Z,101752.88
2023-04-08T12:25:12.181Z,101726.66
2023-04-08T12:27:38.728Z,101737.47
2023-04-08T12:30:05.815Z,101717.38
2023-04-08T12:32:33.610Z,101735.97
2023-04-08T12:35:00.431Z,101733.75
2023-04-08T12:37:27.623Z,101709.44
2023-04-08T12:39:54.237Z,101732.50
2023-04-08T12:42:20.821Z,101719.78
2023-04-08T12:44:47.331Z,101738.00
2023-04-08T12:47:13.908Z,101719.81
2023-04-08T12:52:10.076Z,101717.06
2023-04-08T12:54:36.942Z,101740.09
2023-04-08T12:57:04.597Z,101715.38
2023-04-08T12:59:32.158Z,101707.63
2023-04-08T13:01:59.369Z,101717.97
2023-04-08T13:04:25.966Z,101736.78
2023-04-08T13:06:52.782Z,101727.47
2023-04-08T13:09:19.305Z,101702.84
2023-04-08T13:11:45.856Z,101727.91
2023-04-08T13:14:13.718Z,101728.56
2023-04-08T13:16:40.540Z,101699.81
2023-04-08T13:19:07.184Z,101743.72
2023-04-08T13:21:33.991Z,101742.47
2023-04-08T13:24:00.779Z,101745.94
2023-04-08T13:26:27.372Z,101716.06
2023-04-08T13:28:57.381Z,101746.00
2023-04-08T13:31:25.319Z,101741.91
2023-04-08T13:33:52.314Z,101714.94
2023-04-08T13:36:19.948Z,101723.56
2023-04-08T13:38:46.550Z,101718.03
2023-04-08T13:41:13.057Z,101720.25
2023-04-08T13:43:39.558Z,101735.66
2023-04-08T13:46:06.321Z,101647.00
2023-04-08T13:48:32.913Z,101742.31
2023-04-08T13:50:59.468Z,101732.94
2023-04-08T13:53:26.140Z,101695.38
2023-04-08T13:55:55.133Z,101716.72
2023-04-08T13:58:24.094Z,101717.38
2023-04-08T14:00:54.049Z,101712.78
2023-04-08T14:03:20.840Z,101735.75
2023-04-08T14:05:47.627Z,101718.22
2023-04-08T14:08:14.223Z,101732.28
2023-04-08T14:10:42.257Z,101707.13
2023-04-08T14:13:09.338Z,101747.91
2023-04-08T14:15:36.076Z,101746.13
2023-04-08T14:18:02.831Z,101743.00
2023-04-08T14:20:29.900Z,101751.38
2023-04-08T14:22:56.789Z,101751.78
2023-04-08T14:25:24.222Z,101738.97
2023-04-08T14:27:58.512Z,101728.41
2023-04-08T14:30:26.957Z,101720.72
2023-04-08T14:32:54.004Z,101731.56
2023-04-08T14:35:20.767Z,101671.28
2023-04-08T14:37:47.611Z,101706.13
2023-04-08T14:40:14.145Z,101707.06
2023-04-08T14:42:40.770Z,101707.75
2023-04-08T14:45:07.936Z,101709.81
2023-04-08T14:47:34.474Z,101726.97
2023-04-08T14:50:01.053Z,101712.97
2023-04-08T14:52:27.728Z,101717.63
2023-04-08T14:54:54.248Z,101711.31
2023-04-08T14:57:20.912Z,101699.84
2023-04-08T14:59:48.077Z,101687.69
2023-04-08T15:02:14.752Z,101721.47
2023-04-08T15:04:41.516Z,101729.13
2023-04-08T15:07:08.165Z,101713.50
2023-04-08T15:09:34.649Z,101689.03
2023-04-08T15:12:01.757Z,101697.09
2023-04-08T15:14:28.251Z,101684.66
2023-04-08T15:16:54.735Z,101718.41
2023-04-08T15:19:21.278Z,101692.16
2023-04-08T15:21:48.262Z,101724.63
2023-04-08T15:24:14.894Z,101700.41
2023-04-08T15:26:41.744Z,101731.19
2023-04-08T15:29:08.293Z,101731.88
2023-04-08T15:31:35.270Z,101736.41
2023-04-08T15:34:02.850Z,101727.47
2023-04-08T15:36:30.427Z,101726.66
2023-04-08T15:38:57.097Z,101683.25
2023-04-08T15:41:23.642Z,101715.66
2023-04-08T15:43:50.216Z,101718.78
2023-04-08T15:46:20.854Z,101716.56
2023-04-08T15:48:48.078Z,101678.06
2023-04-08T15:51:14.620Z,101737.16
2023-04-08T15:53:41.683Z,101733.97
2023-04-08T15:56:18.105Z,101731.75
2023-04-08T15:58:45.989Z,101718.16
2023-04-08T16:01:13.487Z,101741.03
2023-04-08T16:03:40.082Z,101727.03
2023-04-08T16:06:07.694Z,101728.84
2023-04-08T16:08:34.796Z,101713.31
2023-04-08T16:11:04.424Z,101618.31
2023-04-08T16:13:31.346Z,101737.69
2023-04-08T16:16:01.957Z,101737.34
2023-04-08T16:18:29.399Z,101731.75
2023-04-08T16:20:56.822Z,101724.84
2023-04-08T16:23:23.792Z,101737.03
2023-04-08T16:25:50.333Z,101737.09
2023-04-08T16:28:18.069Z,101721.56
2023-04-08T16:30:44.641Z,101721.78
2023-04-08T16:33:13.835Z,101689.19
2023-04-08T16:35:40.435Z,101747.53
2023-04-08T16:38:07.133Z,101729.56
2023-04-08T16:40:34.934Z,101750.47
2023-04-08T16:43:02.355Z,101749.06
2023-04-08T16:45:29.991Z,101729.91
2023-04-08T16:47:57.231Z,101744.00
2023-04-08T16:50:24.197Z,101745.69
2023-04-08T16:52:50.823Z,101728.31
2023-04-08T16:55:17.810Z,101727.50
2023-04-08T16:57:44.704Z,101733.66
2023-04-08T17:00:11.739Z,101759.34
2023-04-08T17:02:38.520Z,101737.53
2023-04-08T17:05:05.476Z,101723.44
2023-04-08T17:07:35.227Z,101741.03
2023-04-08T17:10:01.838Z,101751.50
2023-04-08T17:12:28.760Z,101747.09
2023-04-08T17:14:55.232Z,101744.06
2023-04-08T17:17:21.836Z,101733.97
2023-04-08T17:19:48.452Z,101752.03
2023-04-08T17:22:14.934Z,101718.53
2023-04-08T17:24:41.881Z,101761.28
2023-04-08T17:27:08.528Z,101719.66
2023-04-08T17:29:35.051Z,101745.69
2023-04-08T17:32:01.645Z,101742.66
2023-04-08T17:34:29.171Z,101763.75
2023-04-08T17:36:56.781Z,101767.22
2023-04-08T17:39:23.410Z,101748.72
2023-04-08T17:41:50.385Z,101770.13
2023-04-08T17:44:17.200Z,101734.28
2023-04-08T17:46:43.760Z,101755.59
2023-04-08T17:49:12.780Z,101712.97
2023-04-08T17:51:39.365Z,101761.19
2023-04-08T17:54:05.918Z,101773.06
2023-04-08T17:56:33.376Z,101774.38
2023-04-08T17:59:00.443Z,101774.50
2023-04-08T18:01:27.182Z,101763.56
2023-04-08T18:03:54.367Z,101753.78
2023-04-08T18:06:21.252Z,101766.53
2023-04-08T18:08:47.863Z,101781.31
2023-04-08T18:11:14.474Z,101748.06
2023-04-08T18:13:41.079Z,101733.94
2023-04-08T18:16:15.616Z,101786.00
2023-04-08T18:18:42.222Z,101789.53
2023-04-08T18:21:08.820Z,101777.72
2023-04-08T18:23:35.307Z,101751.41
2023-04-08T18:26:01.867Z,101741.16
2023-04-08T18:28:28.439Z,101791.53
2023-04-08T18:30:55.301Z,101796.34
2023-04-08T18:33:21.953Z,101784.84
2023-04-08T18:35:48.514Z,101805.50
2023-04-08T18:38:15.108Z,101778.97
2023-04-08T18:40:42.114Z,101781.63
2023-04-08T18:43:09.558Z,101799.31
2023-04-08T18:45:36.616Z,101821.16
2023-04-08T18:48:03.269Z,101822.75
2023-04-08T18:50:29.775Z,101816.56
2023-04-08T18:52:56.613Z,101832.25
2023-04-08T18:55:23.189Z,101788.19
2023-04-08T18:57:50.740Z,101833.06
2023-04-08T19:00:17.320Z,101819.22
2023-04-08T19:02:44.032Z,101794.75
2023-04-08T19:05:10.745Z,101811.03
2023-04-08T19:07:37.185Z,101818.06
2023-04-08T19:10:03.935Z,101806.59
2023-04-08T19:12:31.502Z,101818.28
2023-04-08T19:14:59.384Z,101834.53
2023-04-08T19:17:26.206Z,101831.19
2023-04-08T19:19:52.690Z,101838.44
2023-04-08T19:22:19.312Z,101836.63
2023-04-08T19:24:45.932Z,101793.25
2023-04-08T19:27:14.424Z,101830.44
2023-04-08T19:29:40.959Z,101718.75
2023-04-08T19:32:07.827Z,101841.25
2023-04-08T19:34:38.491Z,101802.28
2023-04-08T19:37:06.553Z,101842.31
2023-04-08T19:39:33.422Z,101775.69
2023-04-08T19:41:59.966Z,101818.81
2023-04-08T19:44:27.165Z,101817.31
2023-04-08T19:46:54.565Z,101842.47
2023-04-08T19:49:21.810Z,101823.81
2023-04-08T19:51:48.605Z,101852.81
2023-04-08T19:54:15.141Z,101786.06
2023-04-08T19:56:41.787Z,101840.31
2023-04-08T19:59:08.292Z,101854.50
2023-04-08T20:01:35.989Z,101849.41
2023-04-08T20:04:02.735Z,101850.06
2023-04-08T20:06:29.642Z,101846.41
2023-04-08T20:08:56.239Z,101820.84
2023-04-08T20:11:23.075Z,101821.53
2023-04-08T20:13:51.412Z,101827.66
2023-04-08T20:16:18.602Z,101855.56
2023-04-08T20:18:47.856Z,101854.84
2023-04-08T20:21:14.728Z,101858.63
2023-04-08T20:23:44.298Z,101849.94
2023-04-08T20:26:12.626Z,101829.19
2023-04-08T20:28:39.743Z,101848.50
2023-04-08T20:31:07.403Z,101840.47
2023-04-08T20:33:33.998Z,101787.81
2023-04-08T20:36:01.079Z,101843.72
2023-04-08T20:38:28.188Z,101822.56
2023-04-08T20:40:54.745Z,101848.63
2023-04-08T20:43:21.245Z,101842.47
2023-04-08T20:45:48.103Z,101857.69
2023-04-08T20:48:14.556Z,101827.22
2023-04-08T20:50:41.456Z,101831.91
2023-04-08T20:53:08.432Z,101859.78
2023-04-08T20:55:35.063Z,101858.94
2023-04-08T20:58:05.606Z,101859.84
2023-04-08T21:00:32.225Z,101861.56
2023-04-08T21:02:59.606Z,101861.53
2023-04-08T21:05:26.556Z,101826.59
2023-04-08T21:07:53.193Z,101813.94
2023-04-08T21:10:19.772Z,101840.78
2023-04-08T21:12:46.285Z,101860.00
2023-04-08T21:15:12.826Z,101857.84
2023-04-08T21:17:39.359Z,101821.03
2023-04-08T21:20:06.591Z,101855.53
2023-04-08T21:22:33.056Z,101823.59
2023-04-08T21:24:59.588Z,101829.59
2023-04-08T21:27:26.082Z,101852.16
2023-04-08T21:29:52.782Z,101834.75
2023-04-08T21:32:19.589Z,101860.53
2023-04-08T21:34:48.887Z,101842.28
2023-04-08T21:37:15.457Z,101862.00
2023-04-08T21:39:41.983Z,101827.28
2023-04-08T21:42:08.494Z,101857.63
2023-04-08T21:44:35.024Z,101826.94
2023-04-08T21:47:02.184Z,101862.09
2023-04-08T21:49:29.806Z,101853.66
2023-04-08T21:51:56.349Z,101857.06
2023-04-08T21:54:23.295Z,101854.13
2023-04-08T21:56:49.848Z,101804.22
2023-04-08T21:59:16.602Z,101834.19
2023-04-08T22:01:43.341Z,101859.81
2023-04-08T22:04:11.011Z,101848.09
2023-04-08T22:06:37.633Z,101857.97
2023-04-08T22:09:04.489Z,101842.03
2023-04-08T22:11:31.199Z,101829.19
2023-04-08T22:13:57.967Z,101829.88
2023-04-08T22:16:24.570Z,101839.47
2023-04-08T22:18:51.796Z,101823.78
2023-04-08T22:21:18.575Z,101871.59
2023-04-08T22:23:46.053Z,101861.28
2023-04-08T22:26:13.519Z,101833.84
2023-04-08T22:28:41.779Z,101840.91
2023-04-08T22:31:12.289Z,101860.53
2023-04-08T22:33:39.706Z,101867.53
2023-04-08T22:36:06.606Z,101865.16
2023-04-08T22:38:33.276Z,101807.31
2023-04-08T22:40:59.881Z,101851.44
2023-04-08T22:43:27.117Z,101876.19
2023-04-08T22:45:53.633Z,101850.41
2023-04-08T22:48:20.301Z,101866.53
2023-04-08T22:50:46.981Z,101855.50
2023-04-08T22:53:13.585Z,101863.50
2023-04-08T22:55:40.228Z,101853.63
2023-04-08T22:58:06.797Z,101864.44
2023-04-08T23:00:33.341Z,101848.69
2023-04-08T23:03:04.115Z,101857.13
2023-04-08T23:05:31.183Z,101864.63
2023-04-08T23:07:57.796Z,101839.47
2023-04-08T23:10:24.304Z,101856.22
2023-04-08T23:12:50.995Z,101814.13
2023-04-08T23:15:17.931Z,101862.69
2023-04-08T23:17:44.469Z,101853.31
2023-04-08T23:20:11.525Z,101812.78
2023-04-08T23:22:38.167Z,101814.13
2023-04-08T23:25:05.242Z,101860.69
2023-04-08T23:27:31.801Z,101836.31
2023-04-08T23:29:58.382Z,101819.13
2023-04-08T23:32:24.961Z,101855.38
2023-04-08T23:34:51.487Z,101842.53
2023-04-08T23:37:18.119Z,101820.38
2023-04-08T23:39:44.620Z,101822.44
2023-04-08T23:42:11.208Z,101851.47
2023-04-08T23:44:37.715Z,101837.16
2023-04-08T23:47:04.267Z,101811.72
2023-04-08T23:49:30.916Z,101851.13
2023-04-08T23:51:57.544Z,101845.97
2023-04-08T23:54:24.223Z,101821.91
2023-04-08T23:56:50.735Z,101808.81
2023-04-08T23:59:17.402Z,101809.34
